Terminal Aerodrome Forecast
Issued by NWS

Current Version | Previous Version | Text Only | Print | Product List | Glossary On
Versions: 1 2 3 4 5 6 7 8 9 10 11 12
000
FTUS41 KBTV 232058 AAA
TAFRUT
TAF AMD
KRUT 232058Z 2321/2418 32010G17KT 6SM -SHRA VCTS SCT035CB BKN050
      TEMPO 2321/2322 VRB15G30KT 3SM -SHRA BR BKN035
     FM240300 VRB04KT P6SM SCT045
     FM241300 33005KT P6SM SCT040
      AMD LTD TO CLD VIS AND WIND=

USA.gov is the U.S. government's official web portal to all federal, state and local government web resources and services.